首页
METAR-TAF:

METAR-TAF

机场 :

戈梅利機場

戈梅利, 白俄罗斯

纬度: 52-31-36N, 经度: 031-01-06E, 海拔: 144米

当前天气观测

该预报发布于24分钟前的13:00 UTC
风速6节,风向南转西南
温度 2°C
湿度 80%
气压 1014 hPa
能見度: 7000
阴天层高于1600英尺, 积雨云.
小阵雪, 雨

METAR: UMGG 271300Z 20003MPS 7000 -SHSNRA OVC016CB 02/M01 Q1014 R28/190055 NOSIG

时间: 16:24 (13:24 UTC)

预报

该预报发布于2小时和33分钟前的10:51 UTC
预报有效从27日的 12点(UTC)到 28日的 12点(UTC)
风速4节,风向多变
能見度: 2000
多云层高于1000英尺
轻雾
短暂存在
从 27日的 12点(UTC)到 27日的 14点(UTC)
能見度: 3000
多云层高于700英尺
散云层高于1500英尺, 积雨云.
小阵雪, 雨, 轻雾
短暂存在
从 27日的 14点(UTC)到 27日的 20点(UTC)
能見度: 1200
多云层高于400英尺
散云层高于1500英尺, 积雨云.
小阵雪, 轻雾
短暂存在
从 27日的 20点(UTC)到 28日的 12点(UTC)
风速12节,风向
能見度: 0300
层高于200英尺
冻雾

TAF: UMGG 271051Z 2712/2812 VRB02MPS 2000 BR BKN010 TEMPO 2712/2714 3000 -SHSNRA BR BKN007 SCT015CB TEMPO 2714/2720 1200 -SHSN BR BKN004 SCT015CB TEMPO 2720/2812 18006MPS 0300 FZFG VV002

超过4000个机场的气象观测和天气预报(METAR&TAF报告)。

可查询的气象台以黄色和红色小点在地图上表示。

将鼠标移到小点上方,可查看气象台名称。

然后点击查看天气观测和预报。

如需切换地图:点击带黑十字的绿色按钮放大地图;点击带横线的绿色按钮缩小地图;或者点击绿色箭头查看邻近地区的地图。


METAR-TAF: